createdAt,value
2022-08-15T00:00:29.027Z,12.25
2022-08-15T00:03:09.826Z,12.13
2022-08-15T00:08:50.206Z,11.20
2022-08-15T00:11:20.134Z,11.68
2022-08-15T00:13:59.376Z,11.13
2022-08-15T00:16:34.196Z,10.90
2022-08-15T00:19:24.581Z,11.48
2022-08-15T00:22:00.773Z,10.68
2022-08-15T00:24:32.920Z,11.55
2022-08-15T00:27:10.121Z,11.60
2022-08-15T00:29:40.622Z,11.80
2022-08-15T00:33:02.265Z,10.95
2022-08-15T00:35:30.038Z,11.57
2022-08-15T00:38:11.846Z,10.27
2022-08-15T00:41:06.037Z,11.65
2022-08-15T00:43:39.061Z,10.95
2022-08-15T00:46:21.140Z,10.88
2022-08-15T00:48:51.465Z,11.00
2022-08-15T00:51:39.718Z,10.70
2022-08-15T00:54:56.014Z,11.05
2022-08-15T00:57:17.569Z,11.90
2022-08-15T00:59:56.236Z,11.20
2022-08-15T01:02:35.597Z,11.07
2022-08-15T01:05:16.085Z,10.85
2022-08-15T01:07:44.877Z,11.82
2022-08-15T01:10:19.484Z,11.52
2022-08-15T01:12:53.439Z,11.00
2022-08-15T01:15:28.746Z,10.70
2022-08-15T01:18:23.079Z,10.80
2022-08-15T01:21:03.822Z,11.10
2022-08-15T01:23:54.737Z,11.15
2022-08-15T01:26:38.522Z,10.70
2022-08-15T01:29:12.744Z,10.15
2022-08-15T01:34:18.731Z,9.98
2022-08-15T01:36:49.452Z,11.00
2022-08-15T01:39:41.615Z,10.65
2022-08-15T01:42:21.495Z,10.30
2022-08-15T01:44:59.682Z,11.07
2022-08-15T01:48:21.391Z,10.88
2022-08-15T01:51:01.580Z,10.70
2022-08-15T01:53:37.652Z,11.00
2022-08-15T01:56:35.713Z,10.75
2022-08-15T01:59:08.295Z,11.20
2022-08-15T02:01:47.368Z,11.32
2022-08-15T02:04:29.633Z,11.10
2022-08-15T02:07:00.316Z,11.25
2022-08-15T02:09:38.442Z,10.98
2022-08-15T02:13:01.657Z,11.60
2022-08-15T02:15:15.011Z,10.68
2022-08-15T02:17:44.362Z,10.88
2022-08-15T02:20:20.592Z,10.93
2022-08-15T02:22:54.682Z,11.25
2022-08-15T02:25:23.762Z,10.68
2022-08-15T02:27:52.527Z,11.25
2022-08-15T02:30:21.946Z,10.43
2022-08-15T02:33:00.329Z,9.70
2022-08-15T02:35:28.787Z,10.20
2022-08-15T02:37:59.908Z,9.70
2022-08-15T02:40:47.295Z,10.18
2022-08-15T02:43:19.826Z,9.93
2022-08-15T02:45:55.473Z,10.40
2022-08-15T02:48:27.117Z,10.13
2022-08-15T02:50:56.408Z,10.32
2022-08-15T02:53:24.336Z,9.70
2022-08-15T02:55:51.729Z,10.00
2022-08-15T02:58:28.634Z,10.05
2022-08-15T03:00:57.727Z,10.07
2022-08-15T03:03:29.384Z,10.45
2022-08-15T03:05:58.593Z,10.18
2022-08-15T03:08:26.652Z,10.43
2022-08-15T03:10:55.978Z,10.27
2022-08-15T03:13:24.366Z,10.10
2022-08-15T03:15:58.413Z,9.90
2022-08-15T03:18:31.678Z,9.68
2022-08-15T03:21:02.391Z,9.55
2022-08-15T03:23:41.866Z,10.13
2022-08-15T03:26:26.640Z,10.02
2022-08-15T03:29:04.858Z,10.18
2022-08-15T03:31:41.600Z,9.63
2022-08-15T03:34:15.581Z,9.88
2022-08-15T03:36:52.422Z,9.60
2022-08-15T03:39:21.967Z,9.00
2022-08-15T03:41:54.241Z,9.88
2022-08-15T03:44:26.454Z,9.32
2022-08-15T03:46:56.468Z,9.40
2022-08-15T03:50:24.732Z,8.90
2022-08-15T03:52:12.089Z,9.48
2022-08-15T03:54:40.624Z,9.45
2022-08-15T03:57:08.361Z,9.32
2022-08-15T03:59:39.671Z,10.07
2022-08-15T04:02:26.257Z,9.70
2022-08-15T04:04:59.352Z,8.82
2022-08-15T04:07:40.994Z,8.63
2022-08-15T04:10:36.998Z,9.68
2022-08-15T04:13:04.834Z,8.88
2022-08-15T04:15:37.245Z,9.40
2022-08-15T04:18:43.002Z,10.10
2022-08-15T04:20:57.389Z,10.10
2022-08-15T04:23:25.302Z,10.07
2022-08-15T04:25:54.664Z,9.63
2022-08-15T04:28:38.631Z,10.13
2022-08-15T04:31:20.052Z,9.90
2022-08-15T04:34:01.029Z,10.43
2022-08-15T04:36:37.720Z,11.20
2022-08-15T04:39:06.443Z,10.27
2022-08-15T04:41:37.069Z,9.70
2022-08-15T04:44:05.865Z,10.00
2022-08-15T04:46:33.903Z,9.43
2022-08-15T04:49:01.357Z,9.32
2022-08-15T04:51:34.869Z,9.75
2022-08-15T04:54:05.511Z,10.32
2022-08-15T04:56:51.475Z,9.60
2022-08-15T04:59:35.424Z,9.40
2022-08-15T05:02:50.349Z,9.73
2022-08-15T05:05:00.802Z,10.63
2022-08-15T05:07:29.317Z,9.50
2022-08-15T05:10:03.586Z,9.93
2022-08-15T05:12:33.574Z,10.35
2022-08-15T05:15:04.120Z,10.13
2022-08-15T05:17:48.874Z,9.85
2022-08-15T05:20:23.696Z,10.05
2022-08-15T05:23:06.644Z,9.60
2022-08-15T05:25:41.764Z,9.75
2022-08-15T05:28:29.974Z,9.73
2022-08-15T05:31:07.142Z,10.10
2022-08-15T05:33:56.682Z,10.10
2022-08-15T05:36:27.764Z,9.63
2022-08-15T05:39:06.950Z,9.75
2022-08-15T05:41:53.344Z,9.45
2022-08-15T05:44:53.028Z,10.40
2022-08-15T05:47:34.602Z,10.05
2022-08-15T05:50:02.733Z,9.93
2022-08-15T05:52:35.431Z,10.80
2022-08-15T05:55:03.808Z,10.02
2022-08-15T05:57:43.281Z,9.23
2022-08-15T06:00:15.896Z,9.80
2022-08-15T06:03:00.585Z,10.52
2022-08-15T06:05:33.243Z,10.32
2022-08-15T06:08:50.355Z,10.40
2022-08-15T06:11:27.454Z,10.00
2022-08-15T06:14:20.354Z,11.02
2022-08-15T06:16:56.381Z,10.93
2022-08-15T06:19:34.454Z,10.85
2022-08-15T06:22:14.690Z,10.80
2022-08-15T06:25:11.469Z,10.85
2022-08-15T06:28:01.818Z,10.25
2022-08-15T06:30:49.953Z,9.35
2022-08-15T06:33:57.390Z,10.63
2022-08-15T06:36:42.788Z,11.63
2022-08-15T06:39:25.456Z,11.02
2022-08-15T06:41:52.950Z,10.23
2022-08-15T06:44:21.361Z,10.77
2022-08-15T06:46:53.284Z,10.52
2022-08-15T06:49:25.221Z,10.45
2022-08-15T06:52:10.329Z,12.40
2022-08-15T06:54:45.308Z,10.65
2022-08-15T06:57:32.618Z,11.13
2022-08-15T07:00:34.126Z,10.93
2022-08-15T07:03:06.395Z,10.23
2022-08-15T07:05:53.063Z,11.20
2022-08-15T07:08:39.373Z,11.02
2022-08-15T07:11:23.149Z,11.48
2022-08-15T07:14:04.044Z,11.52
2022-08-15T07:16:53.689Z,11.70
2022-08-15T07:19:21.508Z,11.75
2022-08-15T07:21:53.205Z,12.20
2022-08-15T07:24:34.131Z,12.02
2022-08-15T07:27:15.402Z,12.43
2022-08-15T07:29:55.712Z,12.43
2022-08-15T07:32:36.731Z,12.95
2022-08-15T07:35:16.275Z,11.75
2022-08-15T07:37:56.349Z,12.32
2022-08-15T07:40:44.762Z,12.38
2022-08-15T07:46:38.064Z,13.10
2022-08-15T07:49:26.254Z,12.63
2022-08-15T07:52:06.490Z,12.40
2022-08-15T07:54:51.221Z,13.18
2022-08-15T08:00:45.093Z,13.25
2022-08-15T08:06:35.013Z,13.55
2022-08-15T08:09:36.321Z,13.65
2022-08-15T08:12:30.716Z,12.63
2022-08-15T08:15:18.571Z,13.13
2022-08-15T08:18:46.985Z,13.48
2022-08-15T08:21:21.985Z,14.48
2022-08-15T08:24:09.152Z,13.60
2022-08-15T08:26:51.525Z,14.25
2022-08-15T08:29:22.315Z,14.27
2022-08-15T08:32:29.330Z,15.50
2022-08-15T08:35:30.568Z,16.88
2022-08-15T08:39:04.922Z,15.60
2022-08-15T08:41:30.075Z,15.65
2022-08-15T08:44:18.456Z,15.80
2022-08-15T08:47:24.922Z,15.80
2022-08-15T08:50:33.267Z,16.48
2022-08-15T08:53:18.445Z,15.95
2022-08-15T08:56:05.381Z,16.83
2022-08-15T08:59:19.947Z,16.27
2022-08-15T09:01:52.756Z,17.33
2022-08-15T09:04:47.469Z,17.63
2022-08-15T09:07:24.145Z,17.67
2022-08-15T09:09:57.467Z,17.25
2022-08-15T09:12:49.283Z,17.42
2022-08-15T09:15:22.764Z,19.92
2022-08-15T09:18:16.110Z,19.30
2022-08-15T09:20:47.547Z,18.77
2022-08-15T09:23:25.973Z,19.33
2022-08-15T09:26:14.324Z,18.60
2022-08-15T09:29:23.079Z,18.08
2022-08-15T09:32:31.866Z,19.02
2022-08-15T09:35:03.901Z,18.63
2022-08-15T09:37:54.750Z,19.27
2022-08-15T09:41:12.525Z,19.42
2022-08-15T09:43:49.098Z,17.70
2022-08-15T09:46:42.369Z,18.58
2022-08-15T09:49:35.637Z,18.35
2022-08-15T09:52:35.595Z,17.17
2022-08-15T09:55:23.772Z,17.63
2022-08-15T09:57:57.448Z,17.20
2022-08-15T10:00:33.121Z,16.52
2022-08-15T10:03:20.834Z,17.50
2022-08-15T10:06:32.749Z,17.90
2022-08-15T10:08:57.417Z,17.33
2022-08-15T10:12:00.822Z,16.42
2022-08-15T10:14:42.031Z,16.77
2022-08-15T10:17:38.423Z,16.48
2022-08-15T10:20:19.679Z,15.95
2022-08-15T10:23:17.852Z,15.55
2022-08-15T10:25:49.210Z,16.05
2022-08-15T10:28:38.148Z,16.17
2022-08-15T10:31:15.741Z,16.60
2022-08-15T10:33:58.225Z,16.52
2022-08-15T10:36:39.628Z,16.60
2022-08-15T10:39:19.635Z,16.75
2022-08-15T10:42:02.959Z,17.75
2022-08-15T10:45:11.529Z,16.60
2022-08-15T10:48:04.593Z,16.65
2022-08-15T10:50:46.328Z,16.38
2022-08-15T10:53:51.287Z,16.67
2022-08-15T10:57:05.397Z,17.58
2022-08-15T10:59:20.229Z,16.48
2022-08-15T11:01:52.806Z,16.58
2022-08-15T11:04:48.891Z,17.33
2022-08-15T11:07:30.266Z,17.23
2022-08-15T11:10:00.349Z,16.23
2022-08-15T11:12:41.321Z,15.57
2022-08-15T11:15:22.591Z,14.93
2022-08-15T11:18:20.924Z,14.70
2022-08-15T11:20:57.020Z,14.07
2022-08-15T11:23:37.258Z,14.38
2022-08-15T11:26:16.094Z,14.27
2022-08-15T11:28:55.417Z,13.80
2022-08-15T11:31:33.775Z,12.90
2022-08-15T11:34:37.410Z,13.13
2022-08-15T11:37:25.810Z,13.90
2022-08-15T11:40:00.802Z,13.27
2022-08-15T11:42:31.071Z,12.85
2022-08-15T11:45:00.419Z,12.48
2022-08-15T11:47:32.640Z,12.27
2022-08-15T11:50:05.901Z,13.32
2022-08-15T11:52:51.040Z,12.77
2022-08-15T11:55:31.760Z,13.18
2022-08-15T11:58:12.042Z,12.23
2022-08-15T12:00:46.787Z,12.82
2022-08-15T12:04:41.564Z,12.35
2022-08-15T12:06:50.657Z,12.05
2022-08-15T12:12:32.749Z,11.48
2022-08-15T12:13:18.671Z,12.18
2022-08-15T12:15:17.956Z,12.32
2022-08-15T12:18:32.383Z,11.93
2022-08-15T12:21:04.588Z,11.75
2022-08-15T12:23:48.460Z,11.45
2022-08-15T12:26:38.336Z,11.85
2022-08-15T12:29:09.154Z,12.27
2022-08-15T12:31:43.024Z,12.02
2022-08-15T12:37:03.585Z,12.10
2022-08-15T12:39:36.906Z,11.48
2022-08-15T12:42:49.449Z,11.88
2022-08-15T12:45:13.472Z,11.48
2022-08-15T12:48:05.124Z,10.88
2022-08-15T12:50:32.879Z,10.98
2022-08-15T12:53:08.574Z,10.90
2022-08-15T12:55:41.604Z,12.38
2022-08-15T12:58:12.135Z,11.13
2022-08-15T13:01:02.907Z,10.98
2022-08-15T13:04:00.442Z,10.95
2022-08-15T13:06:56.088Z,11.13
2022-08-15T13:09:26.969Z,11.45
2022-08-15T13:11:55.800Z,11.77
2022-08-15T13:14:24.495Z,11.07
2022-08-15T13:17:06.624Z,10.70
2022-08-15T13:20:02.527Z,11.07
2022-08-15T13:22:51.048Z,11.10
2022-08-15T13:25:20.960Z,11.38
2022-08-15T13:27:51.545Z,11.05
2022-08-15T13:30:21.176Z,10.98
2022-08-15T13:32:51.789Z,10.55
2022-08-15T13:35:21.712Z,10.50
2022-08-15T13:37:59.838Z,10.70
2022-08-15T13:40:30.910Z,10.52
2022-08-15T13:43:11.838Z,10.40
2022-08-15T13:45:56.361Z,9.60
2022-08-15T13:48:37.019Z,9.65
2022-08-15T13:51:12.390Z,9.30
2022-08-15T13:56:33.467Z,10.07
2022-08-15T13:59:03.607Z,9.95
2022-08-15T14:01:34.904Z,9.52
2022-08-15T14:04:11.053Z,9.18
2022-08-15T14:06:39.642Z,8.73
2022-08-15T14:09:18.599Z,8.55
2022-08-15T14:11:57.490Z,8.82
2022-08-15T14:14:36.595Z,8.48
2022-08-15T14:17:08.564Z,9.07
2022-08-15T14:20:02.728Z,9.25
2022-08-15T14:22:27.643Z,8.68
2022-08-15T14:25:14.777Z,8.95
2022-08-15T14:30:35.048Z,8.88
2022-08-15T14:33:02.901Z,8.63
2022-08-15T14:38:22.009Z,8.43
2022-08-15T14:40:49.473Z,9.10
2022-08-15T14:43:18.707Z,8.00
2022-08-15T14:46:32.769Z,8.77
2022-08-15T14:48:49.643Z,8.00
2022-08-15T14:52:04.153Z,8.52
2022-08-15T14:54:43.993Z,8.03
2022-08-15T14:57:07.944Z,7.60
2022-08-15T14:59:59.355Z,8.38
2022-08-15T15:02:28.767Z,7.47
2022-08-15T15:04:58.466Z,8.10
2022-08-15T15:07:54.222Z,8.10
2022-08-15T15:10:26.345Z,7.90
2022-08-15T15:13:00.521Z,7.97
2022-08-15T15:15:40.049Z,7.82
2022-08-15T15:18:39.227Z,7.88
2022-08-15T15:21:16.177Z,7.93
2022-08-15T15:23:51.718Z,7.97
2022-08-15T15:29:07.296Z,7.38
2022-08-15T15:31:41.119Z,7.28
2022-08-15T15:36:46.647Z,7.25
2022-08-15T15:39:19.528Z,7.25
2022-08-15T15:42:16.232Z,7.00
2022-08-15T15:44:48.974Z,7.50
2022-08-15T15:47:24.978Z,6.75
2022-08-15T15:49:56.333Z,7.20
2022-08-15T15:52:32.377Z,7.00
2022-08-15T15:55:05.652Z,7.30
2022-08-15T15:58:01.128Z,6.50
2022-08-15T16:00:27.993Z,6.25
2022-08-15T16:03:01.982Z,6.85
2022-08-15T16:06:02.225Z,6.07
2022-08-15T16:08:37.729Z,6.75
2022-08-15T16:13:53.488Z,6.70
2022-08-15T16:16:41.394Z,6.78
2022-08-15T16:19:30.241Z,6.53
2022-08-15T16:22:19.794Z,6.80
2022-08-15T16:24:53.775Z,6.82
2022-08-15T16:27:29.543Z,6.95
2022-08-15T16:30:03.782Z,7.05
2022-08-15T16:32:49.731Z,7.40
2022-08-15T16:35:24.413Z,7.80
2022-08-15T16:39:03.324Z,7.65
2022-08-15T16:41:08.014Z,8.30
2022-08-15T16:43:53.749Z,8.23
2022-08-15T16:46:45.370Z,9.32
2022-08-15T16:49:42.650Z,8.75
2022-08-15T16:52:34.608Z,9.68
2022-08-15T16:55:08.888Z,9.02
2022-08-15T16:57:55.096Z,9.30
2022-08-15T17:00:45.052Z,8.98
2022-08-15T17:03:30.595Z,9.40
2022-08-15T17:06:22.930Z,9.23
2022-08-15T17:09:02.944Z,9.82
2022-08-15T17:12:02.333Z,9.88
2022-08-15T17:14:49.259Z,9.55
2022-08-15T17:17:52.090Z,9.75
2022-08-15T17:20:39.315Z,9.70
2022-08-15T17:23:21.107Z,9.68
2022-08-15T17:26:53.839Z,9.90
2022-08-15T17:29:15.424Z,9.93
2022-08-15T17:31:44.272Z,9.77
2022-08-15T17:34:40.790Z,9.32
2022-08-15T17:37:05.789Z,10.40
2022-08-15T17:39:56.319Z,9.70
2022-08-15T17:42:29.066Z,10.00
2022-08-15T17:45:37.186Z,9.20
2022-08-15T17:47:59.800Z,9.27
2022-08-15T17:50:48.722Z,9.63
2022-08-15T17:53:43.526Z,9.75
2022-08-15T17:56:27.817Z,9.98
2022-08-15T17:59:38.716Z,9.18
2022-08-15T18:02:30.520Z,9.52
2022-08-15T18:05:03.376Z,8.63
2022-08-15T18:07:33.079Z,8.93
2022-08-15T18:10:31.542Z,8.88
2022-08-15T18:13:04.078Z,8.48
2022-08-15T18:15:33.867Z,8.60
2022-08-15T18:18:20.397Z,8.38
2022-08-15T18:20:50.288Z,8.02
2022-08-15T18:23:26.078Z,8.05
2022-08-15T18:26:50.644Z,7.95
2022-08-15T18:29:23.352Z,7.97
2022-08-15T18:32:06.172Z,7.55
2022-08-15T18:34:56.979Z,7.65
2022-08-15T18:37:36.419Z,7.72
2022-08-15T18:40:52.770Z,7.63
2022-08-15T18:43:25.119Z,7.63
2022-08-15T18:45:54.862Z,7.90
2022-08-15T18:48:34.264Z,7.60
2022-08-15T18:51:10.152Z,7.00
2022-08-15T18:54:48.520Z,7.40
2022-08-15T18:57:53.098Z,6.82
2022-08-15T19:00:33.112Z,7.50
2022-08-15T19:03:08.170Z,7.75
2022-08-15T19:05:53.515Z,7.20
2022-08-15T19:08:37.711Z,7.75
2022-08-15T19:11:16.396Z,7.70
2022-08-15T19:17:20.476Z,6.93
2022-08-15T19:19:56.934Z,6.85
2022-08-15T19:22:29.427Z,7.10
2022-08-15T19:24:28.191Z,7.50
2022-08-15T19:25:04.351Z,7.43
2022-08-15T19:27:55.897Z,6.72
2022-08-15T19:30:36.069Z,6.97
2022-08-15T19:33:24.430Z,6.72
2022-08-15T19:36:31.442Z,7.15
2022-08-15T19:39:54.559Z,7.07
2022-08-15T19:42:49.599Z,6.57
2022-08-15T19:45:48.452Z,6.97
2022-08-15T19:48:33.491Z,6.55
2022-08-15T19:51:39.037Z,6.43
2022-08-15T19:55:22.506Z,6.95
2022-08-15T19:57:51.545Z,6.72
2022-08-15T20:00:33.994Z,6.97
2022-08-15T20:03:35.977Z,6.40
2022-08-15T20:06:10.127Z,6.95
2022-08-15T20:08:57.385Z,6.70
2022-08-15T20:12:08.219Z,6.53
2022-08-15T20:14:55.472Z,6.70
2022-08-15T20:17:57.498Z,6.90
2022-08-15T20:20:59.129Z,6.57
2022-08-15T20:23:55.693Z,6.65
2022-08-15T20:26:46.251Z,7.00
2022-08-15T20:30:02.647Z,6.80
2022-08-15T20:32:45.796Z,6.43
2022-08-15T20:35:24.996Z,6.35
2022-08-15T20:38:07.307Z,6.85
2022-08-15T20:41:02.449Z,6.65
2022-08-15T20:43:43.390Z,6.60
2022-08-15T20:46:28.772Z,6.68
2022-08-15T20:49:14.191Z,6.90
2022-08-15T20:52:36.013Z,6.80
2022-08-15T20:54:38.634Z,6.97
2022-08-15T20:57:11.238Z,7.10
2022-08-15T20:59:44.069Z,6.63
2022-08-15T21:02:43.619Z,6.82
2022-08-15T21:05:17.516Z,7.00
2022-08-15T21:10:48.295Z,6.90
2022-08-15T21:13:39.075Z,7.10
2022-08-15T21:16:32.420Z,7.03
2022-08-15T21:19:31.430Z,7.47
2022-08-15T21:22:37.295Z,7.93
2022-08-15T21:25:42.760Z,8.25
2022-08-15T21:28:31.851Z,7.93
2022-08-15T21:31:31.135Z,8.52
2022-08-15T21:34:06.164Z,7.70
2022-08-15T21:36:56.390Z,8.25
2022-08-15T21:39:54.845Z,8.18
2022-08-15T21:42:24.906Z,9.07
2022-08-15T21:45:14.181Z,8.35
2022-08-15T21:48:27.140Z,8.80
2022-08-15T21:51:36.770Z,8.52
2022-08-15T21:54:25.816Z,8.60
2022-08-15T21:57:04.258Z,8.23
2022-08-15T22:00:20.395Z,8.48
2022-08-15T22:02:35.299Z,8.75
2022-08-15T22:05:05.826Z,8.63
2022-08-15T22:07:34.689Z,8.90
2022-08-15T22:10:21.164Z,8.07
2022-08-15T22:12:53.677Z,8.80
2022-08-15T22:15:23.119Z,9.50
2022-08-15T22:17:57.054Z,8.55
2022-08-15T22:20:32.697Z,8.90
2022-08-15T22:23:03.891Z,8.00
2022-08-15T22:25:40.286Z,8.80
2022-08-15T22:28:52.030Z,8.32
2022-08-15T22:31:02.470Z,8.30
2022-08-15T22:33:35.581Z,8.07
2022-08-15T22:36:09.212Z,9.00
2022-08-15T22:38:46.620Z,8.27
2022-08-15T22:41:27.592Z,8.70
2022-08-15T22:44:01.270Z,8.48
2022-08-15T22:46:38.600Z,8.15
2022-08-15T22:49:08.506Z,9.18
2022-08-15T22:51:49.633Z,8.43
2022-08-15T22:54:22.398Z,9.10
2022-08-15T22:56:55.065Z,8.77
2022-08-15T22:59:28.014Z,8.05
2022-08-15T23:04:39.478Z,8.60
2022-08-15T23:07:21.033Z,8.60
2022-08-15T23:09:58.334Z,8.57
2022-08-15T23:12:32.169Z,8.32
2022-08-15T23:15:07.518Z,8.57
2022-08-15T23:17:52.000Z,8.27
2022-08-15T23:20:29.944Z,8.40
2022-08-15T23:23:02.566Z,8.35
2022-08-15T23:25:48.675Z,8.23
2022-08-15T23:28:34.169Z,8.13
2022-08-15T23:31:15.403Z,8.57
2022-08-15T23:33:53.937Z,8.13
2022-08-15T23:37:01.592Z,8.50
2022-08-15T23:39:34.003Z,8.23
2022-08-15T23:42:12.219Z,8.18
2022-08-15T23:44:39.688Z,8.70
2022-08-15T23:47:13.351Z,8.85
2022-08-15T23:49:52.486Z,9.90
2022-08-15T23:52:21.371Z,9.30
2022-08-15T23:54:52.612Z,8.93
2022-08-15T23:57:22.384Z,10.30
2022-08-15T23:59:55.990Z,9.57
